Time;durP1;ratioP1;P1;durP2;ratioP2;P2;SDS_P1;SDS_P2;PMS_P1;PMS_P2;Temp;Humidity;BMP_temperature;BMP_pressure;BME280_temperature;BME280_humidity;BME280_pressure;Samples;Min_cycle;Max_cycle;Signal;HPM_P1;HPM_P2
2022/10/30 00:00:12;;;;;;;17.60;8.33;;;13.50;99.90;;;;;;5135759;27;20035;-79
2022/10/30 00:02:38;;;;;;;18.30;9.00;;;13.50;99.90;;;;;;5135537;27;20076;-79
2022/10/30 00:05:04;;;;;;;24.27;8.87;;;13.60;99.90;;;;;;5135368;27;20388;-79
2022/10/30 00:07:29;;;;;;;26.77;8.40;;;13.60;99.90;;;;;;5135450;27;20047;-79
2022/10/30 00:09:55;;;;;;;18.25;8.32;;;13.60;99.90;;;;;;5135594;27;20039;-78
2022/10/30 00:12:20;;;;;;;19.97;8.53;;;13.60;99.90;;;;;;5135413;27;20088;-79
2022/10/30 00:14:46;;;;;;;14.98;7.85;;;13.60;99.90;;;;;;5134166;27;20039;-79
2022/10/30 00:17:12;;;;;;;11.05;7.45;;;13.70;99.90;;;;;;5135620;27;20043;-79
2022/10/30 00:19:37;;;;;;;15.68;7.68;;;13.70;99.90;;;;;;5135586;27;20039;-79
2022/10/30 00:22:03;;;;;;;16.70;7.57;;;13.70;99.90;;;;;;5135347;27;20164;-79
2022/10/30 00:24:28;;;;;;;19.58;8.68;;;13.70;99.90;;;;;;5135310;27;20391;-79
2022/10/30 00:26:54;;;;;;;17.08;7.97;;;13.70;99.90;;;;;;5135191;27;20135;-79
2022/10/30 00:29:22;;;;;;;20.08;8.38;;;13.90;99.90;;;;;;5135217;27;20122;-79
2022/10/30 00:31:48;;;;;;;18.20;7.50;;;13.70;99.90;;;;;;5134235;27;20398;-79
2022/10/30 00:34:14;;;;;;;15.73;8.73;;;13.70;99.90;;;;;;5134975;27;20055;-79
2022/10/30 00:36:39;;;;;;;18.90;8.30;;;13.60;99.90;;;;;;5135089;27;20039;-79
2022/10/30 00:39:05;;;;;;;19.63;8.13;;;13.50;99.90;;;;;;5135185;27;20050;-79
2022/10/30 00:41:30;;;;;;;15.25;8.00;;;13.60;99.90;;;;;;5135115;27;20095;-79
2022/10/30 00:43:56;;;;;;;14.25;7.90;;;13.50;99.90;;;;;;5135041;27;20133;-79
2022/10/30 00:46:39;;;;;;;14.95;8.35;;;13.50;99.90;;;;;;5134790;27;20470;-79
2022/10/30 00:49:14;;;;;;;19.05;8.00;;;13.50;99.90;;;;;;5135068;27;20493;-79
2022/10/30 00:51:44;;;;;;;20.38;7.75;;;13.50;99.90;;;;;;5135558;27;20108;-79
2022/10/30 00:54:10;;;;;;;15.75;7.72;;;13.50;99.90;;;;;;5135089;27;20126;-79
2022/10/30 00:56:36;;;;;;;17.10;7.75;;;13.50;99.90;;;;;;5134852;27;20047;-79
2022/10/30 00:59:06;;;;;;;21.10;8.00;;;13.40;99.90;;;;;;5134818;27;20471;-79
2022/10/30 01:01:36;;;;;;;19.17;8.30;;;13.40;99.90;;;;;;5134958;27;20092;-79
2022/10/30 01:04:04;;;;;;;21.92;8.05;;;13.30;99.90;;;;;;5134868;27;20035;-80
2022/10/30 01:06:34;;;;;;;20.48;8.65;;;13.30;99.90;;;;;;5135113;27;20054;-79
2022/10/30 01:09:01;;;;;;;16.77;8.35;;;13.20;99.90;;;;;;5134995;27;20046;-79
2022/10/30 01:11:27;;;;;;;16.00;8.07;;;13.20;99.90;;;;;;5135395;27;20043;-79
2022/10/30 01:13:55;;;;;;;20.33;8.82;;;13.10;99.90;;;;;;5136373;27;20118;-79
2022/10/30 01:16:36;;;;;;;16.52;8.30;;;13.10;99.90;;;;;;5139080;27;20382;-80
2022/10/30 01:19:33;;;;;;;15.38;8.60;;;13.00;99.90;;;;;;5149082;27;20086;-79
2022/10/30 01:22:21;;;;;;;15.95;8.20;;;13.00;99.90;;;;;;5123758;27;20075;-79
2022/10/30 01:25:40;;;;;;;16.20;8.80;;;13.00;99.90;;;;;;5139598;27;20055;-79
2022/10/30 01:28:25;;;;;;;16.00;7.90;;;13.00;99.90;;;;;;5056128;28;20057;-79
2022/10/30 01:31:05;;;;;;;19.27;8.40;;;13.00;99.90;;;;;;5132906;27;20104;-79
2022/10/30 01:34:03;;;;;;;15.98;7.78;;;12.90;99.90;;;;;;5138703;27;20166;-79
2022/10/30 01:36:44;;;;;;;17.45;7.40;;;12.90;99.90;;;;;;5138615;27;20043;-80
2022/10/30 01:39:15;;;;;;;18.92;8.43;;;12.90;99.90;;;;;;5138573;27;20050;-79
2022/10/30 01:41:40;;;;;;;20.48;8.90;;;12.90;99.90;;;;;;5138857;27;20107;-79
2022/10/30 01:44:16;;;;;;;17.10;8.00;;;13.10;99.90;;;;;;5138520;27;20474;-79
2022/10/30 01:46:57;;;;;;;15.27;8.20;;;13.00;99.90;;;;;;5138636;27;20039;-79
2022/10/30 01:50:05;;;;;;;21.98;9.07;;;13.00;99.90;;;;;;5138062;27;20521;-79
2022/10/30 01:53:03;;;;;;;21.40;8.27;;;12.90;99.90;;;;;;5123312;27;20082;-79
2022/10/30 01:55:48;;;;;;;16.08;7.72;;;12.90;99.90;;;;;;5137092;27;20047;-79
2022/10/30 01:58:27;;;;;;;18.67;7.88;;;12.90;99.90;;;;;;5138153;27;20047;-79
2022/10/30 02:00:57;;;;;;;16.80;8.98;;;12.90;99.90;;;;;;5138843;27;20390;-79
2022/10/30 02:03:22;;;;;;;15.32;7.47;;;13.00;99.90;;;;;;5138009;27;20379;-79
2022/10/30 02:05:50;;;;;;;15.77;8.30;;;12.90;99.90;;;;;;5137944;27;20050;-79
2022/10/30 02:08:16;;;;;;;18.40;7.97;;;12.90;99.90;;;;;;5137973;27;20065;-79
2022/10/30 02:10:44;;;;;;;17.13;7.70;;;12.90;99.90;;;;;;5137894;27;20059;-79
2022/10/30 02:13:10;;;;;;;15.77;8.07;;;12.90;99.90;;;;;;5138316;27;20043;-79
2022/10/30 02:15:36;;;;;;;17.93;8.53;;;12.80;99.90;;;;;;5137863;27;20039;-79
2022/10/30 02:18:02;;;;;;;16.52;8.23;;;12.80;99.90;;;;;;5137748;27;20383;-79
2022/10/30 02:20:28;;;;;;;16.33;8.02;;;12.80;99.90;;;;;;5136710;27;20130;-79
2022/10/30 02:22:53;;;;;;;17.00;8.27;;;12.80;99.90;;;;;;5137817;27;20043;-79
2022/10/30 02:25:19;;;;;;;22.00;8.50;;;12.70;99.90;;;;;;5137373;27;20075;-79
2022/10/30 02:27:44;;;;;;;22.85;8.45;;;12.70;99.90;;;;;;5137304;27;20084;-79
2022/10/30 02:30:10;;;;;;;19.02;8.73;;;12.70;99.90;;;;;;5137477;27;20406;-79
2022/10/30 02:32:36;;;;;;;18.17;8.20;;;12.70;99.90;;;;;;5137483;27;20079;-79
2022/10/30 02:35:03;;;;;;;16.50;8.23;;;12.70;99.90;;;;;;5137681;27;20050;-80
2022/10/30 02:37:29;;;;;;;15.80;8.32;;;12.70;99.90;;;;;;5136746;27;20047;-80
2022/10/30 02:39:55;;;;;;;18.25;7.82;;;12.60;99.90;;;;;;5137542;27;20100;-80
2022/10/30 02:42:22;;;;;;;18.92;8.57;;;12.60;99.90;;;;;;5136231;27;20494;-80
2022/10/30 02:44:47;;;;;;;15.07;8.50;;;12.60;99.90;;;;;;5119039;27;20482;-79
2022/10/30 02:47:13;;;;;;;17.27;9.05;;;12.60;99.90;;;;;;5136940;27;20043;-80
2022/10/30 02:49:40;;;;;;;18.83;8.80;;;12.60;99.90;;;;;;5137210;27;20043;-80
2022/10/30 02:52:07;;;;;;;17.08;8.52;;;13.00;99.90;;;;;;5137276;27;20070;-80
2022/10/30 02:54:33;;;;;;;19.15;9.15;;;12.60;99.90;;;;;;5136776;27;20039;-80
2022/10/30 02:56:59;;;;;;;22.85;7.78;;;12.60;99.90;;;;;;5136746;27;20480;-80
2022/10/30 02:59:24;;;;;;;19.08;8.07;;;12.60;99.90;;;;;;5137204;27;20096;-80
2022/10/30 03:01:50;;;;;;;17.45;8.15;;;12.60;99.90;;;;;;5137324;27;20039;-80
2022/10/30 03:04:15;;;;;;;13.43;7.43;;;12.60;99.90;;;;;;5136751;27;20453;-80
2022/10/30 03:06:41;;;;;;;20.90;8.48;;;12.70;99.90;;;;;;5136936;27;20127;-80
2022/10/30 03:09:07;;;;;;;24.70;7.97;;;12.60;99.90;;;;;;5136827;27;20498;-80
2022/10/30 03:11:33;;;;;;;27.83;8.55;;;12.60;99.90;;;;;;5136435;27;20049;-80
2022/10/30 03:13:59;;;;;;;16.95;8.60;;;12.60;99.90;;;;;;5136756;27;20043;-80
2022/10/30 03:16:29;;;;;;;20.03;8.93;;;12.50;99.90;;;;;;5136656;27;20394;-80
2022/10/30 03:18:56;;;;;;;19.35;8.88;;;12.50;99.90;;;;;;5136487;27;20482;-80
2022/10/30 03:21:24;;;;;;;14.48;7.85;;;12.50;99.90;;;;;;5136288;27;20035;-79
2022/10/30 03:23:50;;;;;;;18.85;8.18;;;12.40;99.90;;;;;;5136488;27;20095;-80
2022/10/30 03:26:17;;;;;;;13.68;8.45;;;12.40;99.90;;;;;;5136226;27;20043;-80
2022/10/30 03:28:42;;;;;;;14.57;8.07;;;12.30;99.90;;;;;;5136942;27;20058;-79
2022/10/30 03:31:13;;;;;;;18.27;8.00;;;12.30;99.90;;;;;;5136352;27;20039;-80
2022/10/30 03:33:39;;;;;;;24.77;8.35;;;12.70;99.90;;;;;;5136365;27;20066;-80
2022/10/30 03:36:06;;;;;;;19.70;8.50;;;12.20;99.90;;;;;;5134903;27;20479;-80
2022/10/30 03:38:33;;;;;;;21.80;8.80;;;12.20;99.90;;;;;;5136243;27;20043;-80
2022/10/30 03:40:59;;;;;;;14.80;8.43;;;12.60;99.90;;;;;;5136401;27;20043;-80
2022/10/30 03:43:24;;;;;;;19.60;9.00;;;12.10;99.90;;;;;;5136222;27;20043;-80
2022/10/30 03:45:54;;;;;;;21.02;8.88;;;12.10;99.90;;;;;;5136189;27;20043;-79
2022/10/30 03:48:22;;;;;;;19.80;8.63;;;12.10;99.90;;;;;;5135852;27;20035;-79
2022/10/30 03:50:48;;;;;;;18.77;8.55;;;12.10;99.90;;;;;;5136029;27;20088;-80
2022/10/30 03:53:14;;;;;;;15.82;8.95;;;12.00;99.90;;;;;;5135778;27;20047;-80
2022/10/30 03:55:40;;;;;;;14.05;8.55;;;12.00;99.90;;;;;;5136011;27;20039;-80
2022/10/30 03:58:06;;;;;;;16.60;8.85;;;12.50;99.90;;;;;;5136233;27;20047;-80
2022/10/30 04:00:33;;;;;;;16.02;8.05;;;11.90;99.90;;;;;;5135785;27;20082;-80
2022/10/30 04:02:59;;;;;;;21.25;9.10;;;11.90;99.90;;;;;;5135713;27;20039;-80
2022/10/30 04:05:27;;;;;;;18.45;8.23;;;11.80;99.90;;;;;;5135636;27;20206;-80
2022/10/30 04:08:00;;;;;;;13.73;8.43;;;11.80;99.90;;;;;;5135616;27;20039;-79
2022/10/30 04:10:27;;;;;;;19.73;8.68;;;11.80;99.90;;;;;;5135823;27;20054;-80
2022/10/30 04:12:59;;;;;;;17.40;8.27;;;11.80;99.90;;;;;;5135431;27;20039;-80
2022/10/30 04:15:25;;;;;;;19.33;8.18;;;12.20;99.90;;;;;;5135764;27;20043;-80
2022/10/30 04:17:51;;;;;;;17.23;8.27;;;11.70;99.90;;;;;;5135097;27;20139;-80
2022/10/30 04:20:18;;;;;;;19.65;9.60;;;11.60;99.90;;;;;;5134395;27;20039;-80
2022/10/30 04:22:44;;;;;;;20.02;8.90;;;11.60;99.90;;;;;;5135364;27;20051;-80
2022/10/30 04:25:09;;;;;;;19.83;9.20;;;11.70;99.90;;;;;;5135366;27;20039;-80
2022/10/30 04:27:42;;;;;;;17.30;9.20;;;11.60;99.90;;;;;;5133867;27;20100;-80
2022/10/30 04:30:10;;;;;;;19.02;9.35;;;11.60;99.90;;;;;;5135270;27;20035;-80
2022/10/30 04:32:36;;;;;;;15.98;8.18;;;11.60;99.90;;;;;;5134871;27;20039;-80
2022/10/30 04:35:03;;;;;;;14.65;9.23;;;11.50;99.90;;;;;;5135182;27;20134;-80
2022/10/30 04:37:29;;;;;;;;;;;11.50;99.90;;;;;;5136225;27;20130;-80
2022/10/30 04:39:54;;;;;;;18.55;9.25;;;11.60;99.90;;;;;;5135316;27;19966;-80
2022/10/30 04:42:20;;;;;;;19.77;9.63;;;11.50;99.90;;;;;;5135345;27;20451;-80
2022/10/30 04:44:46;;;;;;;14.48;8.48;;;11.50;99.90;;;;;;5135303;27;20039;-80
2022/10/30 04:47:11;;;;;;;20.13;9.30;;;11.50;99.90;;;;;;5135053;27;20045;-80
2022/10/30 04:49:37;;;;;;;15.80;9.05;;;11.50;99.90;;;;;;5134654;27;20043;-80
2022/10/30 04:52:02;;;;;;;21.55;9.40;;;11.60;99.90;;;;;;5134072;27;20112;-80
2022/10/30 04:54:28;;;;;;;18.27;9.35;;;11.40;99.90;;;;;;5134978;27;20043;-80
2022/10/30 04:56:53;;;;;;;15.90;8.63;;;11.40;99.90;;;;;;5134815;27;20054;-80
2022/10/30 04:59:19;;;;;;;23.33;9.13;;;11.80;99.90;;;;;;5134842;27;20035;-80
2022/10/30 05:01:45;;;;;;;16.08;8.70;;;11.40;99.90;;;;;;5134853;27;20083;-80
2022/10/30 05:04:10;;;;;;;20.83;9.48;;;11.30;99.90;;;;;;5134681;27;20048;-80
2022/10/30 05:06:37;;;;;;;17.55;8.57;;;11.30;99.90;;;;;;5135365;27;20045;-80
2022/10/30 05:09:02;;;;;;;19.38;8.55;;;11.30;99.90;;;;;;5135625;27;20051;-80
2022/10/30 05:11:28;;;;;;;17.58;9.27;;;11.50;99.90;;;;;;5134262;28;20134;-80
2022/10/30 05:13:54;;;;;;;14.07;8.65;;;11.20;99.90;;;;;;5135825;28;20047;-80
2022/10/30 05:16:20;;;;;;;18.07;8.60;;;11.20;99.90;;;;;;5136107;27;20600;-80
2022/10/30 05:18:45;;;;;;;16.13;8.35;;;11.20;99.90;;;;;;5135414;28;20043;-80
2022/10/30 05:21:11;;;;;;;14.90;8.23;;;11.20;99.90;;;;;;5134586;28;20046;-80
2022/10/30 05:23:37;;;;;;;21.10;8.73;;;11.10;99.90;;;;;;5134668;28;20447;-80
2022/10/30 05:26:03;;;;;;;13.95;8.65;;;11.00;99.90;;;;;;5134957;27;20047;-80
2022/10/30 05:28:28;;;;;;;16.20;8.45;;;11.10;99.90;;;;;;5134366;28;20111;-80
2022/10/30 05:30:54;;;;;;;15.15;8.90;;;11.00;99.90;;;;;;5134709;28;20059;-80
2022/10/30 05:33:20;;;;;;;18.63;8.77;;;11.00;99.90;;;;;;5133280;28;20493;-80
2022/10/30 05:35:45;;;;;;;16.85;8.85;;;11.00;99.90;;;;;;5134460;28;20039;-80
2022/10/30 05:38:11;;;;;;;23.95;8.55;;;11.20;99.90;;;;;;5134633;28;20039;-80
2022/10/30 05:40:37;;;;;;;19.33;8.88;;;11.00;99.90;;;;;;5134765;28;20439;-80
2022/10/30 05:43:04;;;;;;;17.52;8.88;;;11.00;99.90;;;;;;5135422;28;20036;-80
2022/10/30 05:45:30;;;;;;;17.90;9.07;;;10.90;99.90;;;;;;5135211;27;20046;-79
2022/10/30 05:48:00;;;;;;;17.73;9.25;;;10.90;99.90;;;;;;5134538;28;20054;-80
2022/10/30 05:50:27;;;;;;;17.00;8.65;;;10.90;99.90;;;;;;5134295;27;20047;-80
2022/10/30 05:53:00;;;;;;;13.70;8.95;;;10.90;99.90;;;;;;5134218;27;20042;-80
2022/10/30 05:55:26;;;;;;;17.15;10.13;;;10.90;99.90;;;;;;5134173;27;20047;-80
2022/10/30 05:57:57;;;;;;;20.00;8.93;;;10.90;99.90;;;;;;5133019;28;20062;-80
2022/10/30 06:00:23;;;;;;;20.98;9.43;;;10.90;99.90;;;;;;5136277;27;20043;-80
2022/10/30 06:02:48;;;;;;;19.88;9.93;;;10.90;99.90;;;;;;5138082;27;20039;-80
2022/10/30 06:05:14;;;;;;;16.85;9.40;;;10.80;99.90;;;;;;5138038;27;20504;-80
2022/10/30 06:07:40;;;;;;;23.48;10.27;;;10.80;99.90;;;;;;5138128;27;20043;-78
2022/10/30 06:10:05;;;;;;;16.50;10.35;;;10.80;99.90;;;;;;5138090;27;20043;-80
2022/10/30 06:12:31;;;;;;;14.75;8.60;;;10.80;99.90;;;;;;5118849;27;20082;-79
2022/10/30 06:14:56;;;;;;;16.30;9.48;;;10.90;99.90;;;;;;5117343;28;20555;-86
2022/10/30 06:17:22;;;;;;;21.00;9.52;;;10.80;99.90;;;;;;5117304;28;20089;-81
2022/10/30 06:19:48;;;;;;;19.75;10.13;;;10.80;99.90;;;;;;5117772;28;20379;-82
2022/10/30 06:22:13;;;;;;;22.23;9.88;;;10.80;99.90;;;;;;5117215;28;20043;-85
2022/10/30 06:24:39;;;;;;;19.85;10.13;;;10.80;99.90;;;;;;5117190;28;20044;-83
2022/10/30 06:27:04;;;;;;;18.42;9.98;;;10.80;99.90;;;;;;5116643;28;20047;-85
2022/10/30 06:29:30;;;;;;;16.75;10.43;;;10.80;99.90;;;;;;5116021;28;20058;-84
2022/10/30 06:31:55;;;;;;;15.23;10.02;;;10.80;99.90;;;;;;5098933;28;20062;-83
2022/10/30 06:34:21;;;;;;;19.35;9.77;;;10.80;99.90;;;;;;5117015;28;20093;-85
2022/10/30 06:36:47;;;;;;;17.70;10.00;;;10.90;99.90;;;;;;5099733;28;20040;-85
2022/10/30 06:39:12;;;;;;;19.08;10.07;;;10.80;99.90;;;;;;5098965;28;20510;-85
2022/10/30 06:41:38;;;;;;;21.27;10.15;;;10.90;99.90;;;;;;5117066;28;20047;-81
2022/10/30 06:44:03;;;;;;;25.35;10.32;;;10.80;99.90;;;;;;5116717;28;20047;-83
2022/10/30 06:46:29;;;;;;;19.30;9.57;;;10.80;99.90;;;;;;5098882;28;20134;-84
2022/10/30 06:48:55;;;;;;;21.45;9.85;;;11.10;99.90;;;;;;5115408;28;20044;-81
2022/10/30 06:51:20;;;;;;;19.80;10.05;;;10.80;99.90;;;;;;5115154;28;20067;-82
2022/10/30 06:53:46;;;;;;;17.65;9.73;;;10.90;99.90;;;;;;5116561;28;20082;-85
2022/10/30 06:56:11;;;;;;;17.90;9.88;;;10.80;99.90;;;;;;5116579;28;20096;-84
2022/10/30 06:58:40;;;;;;;14.93;8.88;;;11.20;99.90;;;;;;5116578;28;20062;-80
2022/10/30 07:01:06;;;;;;;20.77;10.25;;;10.90;99.90;;;;;;5116437;28;20039;-82
2022/10/30 07:03:32;;;;;;;19.40;9.53;;;10.90;99.90;;;;;;5115314;28;20047;-81
2022/10/30 07:05:58;;;;;;;19.15;10.80;;;10.90;99.90;;;;;;5116814;28;20050;-83
2022/10/30 07:08:23;;;;;;;23.83;10.02;;;10.90;99.90;;;;;;5116329;28;20407;-82
2022/10/30 07:10:49;;;;;;;20.90;10.20;;;10.90;99.90;;;;;;5114937;28;20562;-82
2022/10/30 07:13:15;;;;;;;22.77;10.90;;;11.00;99.90;;;;;;5114567;28;20119;-82
2022/10/30 07:15:41;;;;;;;22.17;10.67;;;11.40;99.90;;;;;;5115237;28;20100;-82
2022/10/30 07:18:08;;;;;;;22.58;11.15;;;11.10;99.90;;;;;;5116159;28;20273;-81
2022/10/30 07:20:34;;;;;;;18.80;10.55;;;11.20;99.90;;;;;;5114858;28;20047;-83
2022/10/30 07:23:01;;;;;;;21.90;11.13;;;11.20;99.90;;;;;;5116020;28;20035;-80
2022/10/30 07:25:26;;;;;;;25.45;11.63;;;11.20;99.90;;;;;;5115941;28;20066;-82
2022/10/30 07:27:54;;;;;;;23.75;11.80;;;11.30;99.90;;;;;;5115606;28;20487;-80
2022/10/30 07:30:22;;;;;;;24.15;11.48;;;11.40;99.90;;;;;;5117254;27;20043;-79
2022/10/30 07:33:03;;;;;;;23.02;11.63;;;11.50;99.90;;;;;;5129662;27;20050;-80
2022/10/30 07:35:29;;;;;;;25.27;12.45;;;11.50;99.90;;;;;;5136316;27;20479;-80
2022/10/30 07:37:54;;;;;;;22.67;12.38;;;11.60;99.90;;;;;;5126190;27;20044;-78
2022/10/30 07:40:21;;;;;;;28.05;12.30;;;11.70;99.90;;;;;;5135995;27;20122;-82
2022/10/30 07:42:47;;;;;;;23.40;13.13;;;11.80;99.90;;;;;;5135992;27;20070;-81
2022/10/30 07:45:13;;;;;;;24.38;12.02;;;11.90;99.90;;;;;;5136093;27;20126;-79
2022/10/30 07:47:40;;;;;;;25.67;12.82;;;12.00;99.90;;;;;;5136070;27;20450;-82
2022/10/30 07:50:06;;;;;;;26.33;12.60;;;12.10;99.90;;;;;;5135783;27;20089;-83
2022/10/30 07:52:32;;;;;;;24.55;12.48;;;12.20;99.90;;;;;;5135698;27;20149;-79
2022/10/30 07:54:57;;;;;;;26.77;13.13;;;12.30;99.90;;;;;;5135895;27;20058;-79
2022/10/30 07:57:23;;;;;;;24.38;13.38;;;12.60;99.90;;;;;;5135849;27;20049;-79
2022/10/30 07:59:48;;;;;;;22.67;13.52;;;12.40;99.90;;;;;;5134598;27;20459;-82
2022/10/30 08:02:14;;;;;;;26.33;13.38;;;12.50;99.90;;;;;;5134437;27;20039;-85
2022/10/30 08:04:40;;;;;;;21.35;12.13;;;12.60;99.90;;;;;;5134681;27;20043;-82
2022/10/30 08:07:05;;;;;;;25.95;13.80;;;12.70;99.90;;;;;;5135766;27;20126;-82
2022/10/30 08:09:31;;;;;;;26.15;12.85;;;12.80;99.90;;;;;;5135918;27;20486;-79
2022/10/30 08:11:57;;;;;;;26.15;12.75;;;13.00;99.90;;;;;;5134478;27;20042;-81
2022/10/30 08:14:22;;;;;;;21.20;13.40;;;13.00;99.90;;;;;;5135826;27;20055;-74
2022/10/30 08:16:49;;;;;;;25.02;13.35;;;13.10;99.90;;;;;;5135203;27;20051;-80
2022/10/30 08:19:15;;;;;;;;;;;12.90;99.90;;;;;;5135866;27;20049;-76
2022/10/30 08:21:40;;;;;;;26.85;12.88;;;13.30;99.90;;;;;;5135142;27;20340;-80
2022/10/30 08:24:06;;;;;;;21.77;12.38;;;13.40;99.90;;;;;;5135138;27;20088;-82
2022/10/30 08:26:32;;;;;;;20.92;12.85;;;13.50;99.90;;;;;;5135409;27;20420;-82
2022/10/30 08:28:57;;;;;;;25.63;12.65;;;13.60;99.90;;;;;;5134339;27;20096;-83
2022/10/30 08:31:23;;;;;;;21.08;12.27;;;13.60;99.90;;;;;;5134977;27;20042;-80
2022/10/30 08:33:48;;;;;;;25.30;13.57;;;13.70;99.90;;;;;;5134795;27;20039;-82
2022/10/30 08:36:14;;;;;;;22.75;12.70;;;13.80;99.90;;;;;;5134043;27;20042;-82
2022/10/30 08:38:40;;;;;;;27.17;13.80;;;13.90;99.90;;;;;;5135233;27;20103;-80
2022/10/30 08:41:05;;;;;;;34.93;13.30;;;14.00;99.90;;;;;;5134536;27;20055;-80
2022/10/30 08:43:31;;;;;;;25.73;13.43;;;14.00;99.90;;;;;;5134622;27;20043;-81
2022/10/30 08:45:57;;;;;;;24.83;13.25;;;14.40;99.90;;;;;;5134948;27;20514;-80
2022/10/30 08:48:22;;;;;;;17.38;12.02;;;14.20;99.90;;;;;;5135019;27;20086;-82
2022/10/30 08:50:48;;;;;;;24.33;12.85;;;14.30;99.90;;;;;;5135088;27;20082;-82
2022/10/30 08:53:14;;;;;;;26.63;13.45;;;14.40;99.90;;;;;;5134819;27;20478;-80
2022/10/30 08:55:40;;;;;;;27.33;13.37;;;14.50;99.90;;;;;;5135124;27;20043;-82
2022/10/30 08:58:06;;;;;;;24.60;12.13;;;14.60;99.90;;;;;;5134813;27;20760;-80
2022/10/30 09:00:33;;;;;;;23.13;13.33;;;14.70;99.90;;;;;;5134636;27;20036;-80
2022/10/30 09:02:58;;;;;;;27.15;12.25;;;14.70;99.90;;;;;;5133618;27;20062;-81
2022/10/30 09:05:24;;;;;;;25.73;12.85;;;14.80;99.90;;;;;;5134759;27;20039;-80
2022/10/30 09:07:56;;;;;;;24.80;13.38;;;14.80;99.90;;;;;;5134837;27;20043;-81
2022/10/30 09:10:22;;;;;;;25.83;13.00;;;14.80;99.90;;;;;;5135001;27;20057;-80
2022/10/30 09:12:52;;;;;;;26.77;13.20;;;14.90;99.90;;;;;;5134579;27;20039;-80
2022/10/30 09:15:18;;;;;;;25.45;13.25;;;14.90;99.90;;;;;;5134727;27;20047;-82
2022/10/30 09:17:43;;;;;;;26.87;13.50;;;15.10;99.90;;;;;;5134804;27;20104;-81
2022/10/30 09:20:09;;;;;;;25.57;12.10;;;15.00;99.90;;;;;;5134677;27;20043;-81
2022/10/30 09:22:40;;;;;;;29.27;13.33;;;15.00;99.90;;;;;;5134621;27;20035;-81
2022/10/30 09:25:06;;;;;;;34.65;13.98;;;15.10;99.90;;;;;;5134618;27;20530;-81
2022/10/30 09:27:37;;;;;;;24.37;13.67;;;15.20;99.90;;;;;;5133179;28;20146;-80
2022/10/30 09:30:03;;;;;;;21.80;13.43;;;15.20;99.90;;;;;;5134970;27;20126;-82
2022/10/30 09:32:28;;;;;;;26.77;13.25;;;15.30;99.90;;;;;;5134429;27;20491;-81
2022/10/30 09:34:54;;;;;;;32.17;13.60;;;15.40;99.90;;;;;;5136126;27;20240;-82
2022/10/30 09:37:19;;;;;;;22.60;13.57;;;15.50;99.90;;;;;;5138632;27;20494;-81
2022/10/30 09:39:45;;;;;;;26.90;12.27;;;15.60;99.90;;;;;;5137418;27;20463;-80
2022/10/30 09:42:46;;;;;;;22.20;13.40;;;16.10;99.90;;;;;;5138642;27;20042;-81
2022/10/30 09:45:39;;;;;;;24.38;12.77;;;15.70;99.90;;;;;;5138439;27;20047;-81
2022/10/30 09:48:21;;;;;;;22.52;13.15;;;15.90;99.90;;;;;;5138433;27;20047;-81
2022/10/30 09:51:04;;;;;;;26.27;12.70;;;15.90;99.90;;;;;;5138371;27;20467;-81
2022/10/30 09:53:59;;;;;;;25.63;12.80;;;16.00;99.90;;;;;;5138606;27;20398;-81
2022/10/30 09:56:50;;;;;;;23.17;12.38;;;16.10;99.90;;;;;;5138499;27;20118;-81
2022/10/30 09:59:27;;;;;;;20.88;12.35;;;16.30;99.90;;;;;;5138248;27;20039;-82
2022/10/30 10:02:02;;;;;;;28.75;13.02;;;16.40;99.90;;;;;;5138094;27;20394;-80
2022/10/30 10:04:50;;;;;;;27.30;12.25;;;16.40;99.90;;;;;;5138136;27;20501;-82
2022/10/30 10:07:23;;;;;;;23.67;11.75;;;16.40;99.90;;;;;;5137929;27;20429;-82
2022/10/30 10:09:53;;;;;;;24.75;12.45;;;16.50;99.90;;;;;;5138024;27;20107;-82
2022/10/30 10:12:42;;;;;;;22.83;11.25;;;16.60;99.90;;;;;;5138317;27;20039;-81
2022/10/30 10:15:20;;;;;;;23.85;12.25;;;16.60;99.90;;;;;;5138063;27;20054;-80
2022/10/30 10:17:46;;;;;;;28.10;12.52;;;16.70;99.90;;;;;;5137982;27;20051;-80
2022/10/30 10:20:27;;;;;;;28.17;12.70;;;16.80;99.90;;;;;;5137288;27;20047;-81
2022/10/30 10:22:55;;;;;;;23.95;12.65;;;16.70;99.90;;;;;;5136224;27;20558;-84
2022/10/30 10:25:22;;;;;;;24.15;12.07;;;16.80;99.90;;;;;;5137627;27;20043;-83
2022/10/30 10:27:56;;;;;;;25.50;12.40;;;16.90;99.90;;;;;;5136310;27;20047;-82
2022/10/30 10:30:23;;;;;;;27.88;12.85;;;16.90;99.90;;;;;;5137430;27;20043;-83
2022/10/30 10:32:52;;;;;;;;;;;17.00;99.90;;;;;;5137934;27;20436;-82
2022/10/30 10:35:44;;;;;;;20.05;12.25;;;17.10;99.90;;;;;;5137498;27;19964;-82
2022/10/30 10:38:32;;;;;;;31.00;12.75;;;17.20;99.90;;;;;;5135784;27;20495;-81
2022/10/30 10:41:22;;;;;;;29.27;12.95;;;17.30;99.90;;;;;;5124028;27;20058;-81
2022/10/30 10:44:00;;;;;;;21.88;12.52;;;17.30;99.90;;;;;;5137287;27;20089;-83
2022/10/30 10:47:03;;;;;;;24.50;12.27;;;17.70;99.90;;;;;;5135833;27;20039;-82
2022/10/30 10:49:55;;;;;;;22.38;11.90;;;17.50;99.90;;;;;;5137160;27;20043;-83
2022/10/30 10:52:38;;;;;;;33.05;12.52;;;17.60;99.90;;;;;;5136890;27;20483;-77
2022/10/30 10:55:13;;;;;;;22.73;12.30;;;17.70;99.90;;;;;;5137108;27;20551;-82
2022/10/30 10:57:40;;;;;;;21.23;11.60;;;17.80;99.90;;;;;;5136855;27;20126;-83
2022/10/30 11:00:19;;;;;;;17.52;11.23;;;17.80;99.90;;;;;;5135821;27;20043;-81
2022/10/30 11:02:50;;;;;;;21.30;12.10;;;18.00;99.90;;;;;;5136949;27;20054;-81
2022/10/30 11:05:38;;;;;;;22.90;11.60;;;18.00;99.90;;;;;;5135998;27;20402;-83
2022/10/30 11:08:19;;;;;;;23.00;11.80;;;18.10;99.90;;;;;;5148718;27;20058;-84
2022/10/30 11:10:55;;;;;;;22.38;10.77;;;18.30;99.90;;;;;;5137128;27;20486;-84
2022/10/30 11:13:24;;;;;;;19.13;10.88;;;18.30;99.90;;;;;;5137264;27;20375;-84
2022/10/30 11:16:08;;;;;;;24.88;11.55;;;18.30;99.90;;;;;;5135914;27;20035;-83
2022/10/30 11:18:34;;;;;;;21.33;11.43;;;18.50;99.90;;;;;;5135765;27;20058;-83
2022/10/30 11:21:04;;;;;;;24.43;11.90;;;18.50;99.90;;;;;;5137370;27;20035;-83
2022/10/30 11:23:37;;;;;;;22.30;11.07;;;18.50;99.90;;;;;;5136818;27;20495;-82
2022/10/30 11:26:03;;;;;;;20.52;10.60;;;18.50;99.90;;;;;;5137323;27;20444;-82
2022/10/30 11:28:47;;;;;;;20.60;9.82;;;18.60;99.90;;;;;;5136846;27;20116;-82
2022/10/30 11:31:33;;;;;;;18.77;10.52;;;18.50;99.90;;;;;;5118485;27;20104;-83
2022/10/30 11:34:17;;;;;;;20.95;10.32;;;18.70;99.90;;;;;;5136766;27;20122;-85
2022/10/30 11:36:48;;;;;;;20.15;10.60;;;18.80;99.90;;;;;;5136263;27;20130;-77
2022/10/30 11:39:24;;;;;;;25.00;10.45;;;18.80;99.90;;;;;;5135708;27;20078;-82
2022/10/30 11:41:58;;;;;;;28.42;10.43;;;18.90;99.90;;;;;;5136311;27;20143;-83
2022/10/30 11:44:29;;;;;;;23.77;10.35;;;18.90;99.90;;;;;;5134855;27;20043;-81
2022/10/30 11:46:55;;;;;;;22.25;10.57;;;19.10;99.90;;;;;;5133093;27;20039;-82
2022/10/30 11:49:46;;;;;;;20.42;10.02;;;19.10;99.90;;;;;;5134034;27;20390;-82
2022/10/30 11:52:15;;;;;;;19.77;9.52;;;19.10;99.90;;;;;;5135257;27;20031;-82
2022/10/30 11:54:44;;;;;;;26.48;10.18;;;19.20;99.90;;;;;;5135602;27;20159;-82
2022/10/30 11:57:34;;;;;;;21.42;10.25;;;19.20;99.90;;;;;;5135339;27;20066;-82
2022/10/30 12:00:00;;;;;;;34.75;10.10;;;19.40;99.90;;;;;;5134843;27;20043;-83
2022/10/30 12:02:28;;;;;;;;;;;19.30;99.90;;;;;;5136810;27;20047;-82
2022/10/30 12:04:59;;;;;;;22.27;9.32;;;19.30;99.90;;;;;;5135826;27;19924;-82
2022/10/30 12:07:29;;;;;;;17.35;9.02;;;19.30;99.90;;;;;;5135366;27;20058;-83
2022/10/30 12:09:58;;;;;;;20.05;9.13;;;19.30;99.90;;;;;;5135442;27;20049;-82
2022/10/30 12:12:30;;;;;;;27.23;10.43;;;19.60;99.90;;;;;;5135515;27;20479;-83
2022/10/30 12:15:09;;;;;;;22.60;10.52;;;19.40;99.90;;;;;;5135591;27;20046;-82
2022/10/30 12:17:36;;;;;;;17.90;9.63;;;19.50;99.90;;;;;;5134840;27;20087;-82
2022/10/30 12:20:04;;;;;;;19.70;9.93;;;19.60;99.90;;;;;;5135579;27;20039;-82
2022/10/30 12:22:33;;;;;;;20.80;9.52;;;19.60;99.90;;;;;;5135164;27;20133;-82
2022/10/30 12:25:02;;;;;;;23.67;9.68;;;19.60;99.90;;;;;;5135357;27;20126;-82
2022/10/30 12:27:30;;;;;;;24.25;10.00;;;19.60;99.90;;;;;;5135330;27;20051;-82
2022/10/30 12:30:07;;;;;;;18.45;9.43;;;19.60;99.90;;;;;;5135804;27;20393;-82
2022/10/30 12:32:40;;;;;;;20.05;9.77;;;19.60;99.90;;;;;;5135285;27;20046;-82
2022/10/30 12:35:29;;;;;;;24.80;10.25;;;19.60;99.90;;;;;;5135346;27;20043;-82
2022/10/30 12:37:58;;;;;;;25.05;10.63;;;19.60;99.90;;;;;;5134022;27;20047;-82
2022/10/30 12:40:29;;;;;;;32.20;10.48;;;19.50;99.90;;;;;;5135470;27;20043;-82
2022/10/30 12:43:16;;;;;;;22.35;10.35;;;19.50;99.90;;;;;;5135728;27;20147;-82
2022/10/30 12:45:44;;;;;;;20.17;10.57;;;19.50;99.90;;;;;;5135218;27;20050;-82